Time;durP1;ratioP1;P1;durP2;ratioP2;P2;SDS_P1;SDS_P2;PMS_P1;PMS_P2;Temp;Humidity;BMP_temperature;BMP_pressure;BME280_temperature;BME280_humidity;BME280_pressure;Samples;Min_cycle;Max_cycle;Signal;HPM_P1;HPM_P2
2024/03/20 00:02:13;;;;;;;8.15;6.05;;;;;;;;;;10318006;28;20258;-63
2024/03/20 00:07:14;;;;;;;6.90;5.82;;;;;;;;;;10322088;28;20026;-64
2024/03/20 00:12:15;;;;;;;8.23;5.80;;;;;;;;;;10312330;28;20038;-64
2024/03/20 00:17:16;;;;;;;8.05;5.45;;;;;;;;;;10322031;28;20117;-63
2024/03/20 00:22:17;;;;;;;6.90;5.38;;;;;;;;;;10322511;28;20088;-64
2024/03/20 00:27:17;;;;;;;6.78;5.70;;;;;;;;;;10308984;28;20023;-63
2024/03/20 00:32:18;;;;;;;5.40;4.85;;;;;;;;;;10317242;28;20046;-62
2024/03/20 00:37:19;;;;;;;6.00;5.40;;;;;;;;;;10323485;28;20042;-63
2024/03/20 00:42:20;;;;;;;6.93;5.57;;;;;;;;;;10315763;28;20030;-62
2024/03/20 00:47:21;;;;;;;6.10;5.07;;;;;;;;;;10318446;28;20056;-63
2024/03/20 00:52:21;;;;;;;6.82;5.18;;;;;;;;;;10321106;28;20130;-63
2024/03/20 00:57:22;;;;;;;7.55;5.53;;;;;;;;;;10316913;28;20390;-63
2024/03/20 01:02:22;;;;;;;11.25;6.18;;;;;;;;;;10321424;28;20394;-63
2024/03/20 01:07:23;;;;;;;6.55;5.63;;;;;;;;;;10320843;28;20121;-63
2024/03/20 01:12:24;;;;;;;8.43;6.35;;;;;;;;;;10321402;28;20410;-63
2024/03/20 01:17:24;;;;;;;9.70;5.35;;;;;;;;;;10328236;28;20436;-63
2024/03/20 01:22:25;;;;;;;6.57;5.35;;;;;;;;;;10326285;28;20034;-61
2024/03/20 01:27:25;;;;;;;6.88;5.93;;;;;;;;;;10327675;28;20038;-63
2024/03/20 01:32:26;;;;;;;15.88;6.10;;;;;;;;;;10321956;28;20038;-63
2024/03/20 01:37:27;;;;;;;7.55;5.85;;;;;;;;;;10328510;28;20092;-61
2024/03/20 01:42:27;;;;;;;9.10;6.32;;;;;;;;;;10321066;28;20026;-61
2024/03/20 01:47:28;;;;;;;7.60;6.00;;;;;;;;;;10327323;28;20027;-62
2024/03/20 01:52:28;;;;;;;6.18;5.32;;;;;;;;;;10327253;28;20092;-62
2024/03/20 01:57:29;;;;;;;9.63;6.05;;;;;;;;;;10323159;28;20027;-61
2024/03/20 02:02:29;;;;;;;8.63;6.10;;;;;;;;;;10325307;28;20385;-61
2024/03/20 02:07:30;;;;;;;7.35;5.68;;;;;;;;;;10321245;28;20525;-60
2024/03/20 02:12:31;;;;;;;7.15;5.35;;;;;;;;;;10324778;28;20478;-62
2024/03/20 02:17:31;;;;;;;8.00;5.28;;;;;;;;;;10324612;28;20034;-61
2024/03/20 02:22:41;;;;;;;7.20;5.82;;;;;;;;;;10325666;28;20046;-61
2024/03/20 02:27:41;;;;;;;6.53;5.18;;;;;;;;;;10322290;28;20129;-61
2024/03/20 02:32:42;;;;;;;6.72;6.03;;;;;;;;;;10324726;28;20390;-61
2024/03/20 02:37:42;;;;;;;7.20;5.28;;;;;;;;;;10327409;28;20124;-62
2024/03/20 02:42:43;;;;;;;7.03;5.53;;;;;;;;;;10328920;28;20505;-63
2024/03/20 02:47:44;;;;;;;6.65;5.55;;;;;;;;;;10323732;28;20386;-63
2024/03/20 02:52:44;;;;;;;7.80;5.57;;;;;;;;;;10325815;28;20030;-62
2024/03/20 02:57:45;;;;;;;7.60;5.20;;;;;;;;;;10308590;28;20073;-62
2024/03/20 03:02:45;;;;;;;8.65;5.35;;;;;;;;;;10321814;28;20043;-62
2024/03/20 03:07:47;;;;;;;7.22;5.57;;;;;;;;;;10320094;28;20030;-62
2024/03/20 03:12:51;;;;;;;7.00;5.07;;;;;;;;;;10315829;28;20031;-63
2024/03/20 03:17:54;;;;;;;8.77;5.28;;;;;;;;;;10319157;28;20150;-63
2024/03/20 03:22:55;;;;;;;8.35;4.93;;;;;;;;;;10321683;28;20066;-62
2024/03/20 03:27:55;;;;;;;7.15;5.40;;;;;;;;;;10323377;28;20038;-62
2024/03/20 03:32:56;;;;;;;5.63;5.03;;;;;;;;;;10320585;28;20114;-63
2024/03/20 03:37:57;;;;;;;6.65;5.30;;;;;;;;;;10323118;28;20101;-62
2024/03/20 03:42:58;;;;;;;7.18;4.68;;;;;;;;;;10320116;28;20438;-62
2024/03/20 03:47:58;;;;;;;5.38;4.78;;;;;;;;;;10310247;28;20034;-63
2024/03/20 03:52:59;;;;;;;6.35;4.75;;;;;;;;;;10323788;28;20427;-62
2024/03/20 03:57:59;;;;;;;6.43;5.32;;;;;;;;;;10320742;28;20402;-63
2024/03/20 04:03:00;;;;;;;6.22;4.97;;;;;;;;;;10315385;28;20410;-62
2024/03/20 04:08:01;;;;;;;5.22;4.68;;;;;;;;;;10321923;28;20038;-63
2024/03/20 04:13:02;;;;;;;5.43;4.82;;;;;;;;;;10312766;28;20521;-62
2024/03/20 04:18:03;;;;;;;9.70;4.68;;;;;;;;;;10322947;28;20060;-62
2024/03/20 04:23:04;;;;;;;5.47;4.50;;;;;;;;;;10319492;28;20030;-63
2024/03/20 04:28:05;;;;;;;5.18;4.50;;;;;;;;;;10320511;28;20022;-63
2024/03/20 04:33:07;;;;;;;4.82;4.25;;;;;;;;;;10319743;28;20394;-62
2024/03/20 04:38:08;;;;;;;6.07;4.60;;;;;;;;;;10310823;28;20467;-62
2024/03/20 04:43:09;;;;;;;5.07;4.55;;;;;;;;;;10320339;28;20038;-63
2024/03/20 04:48:10;;;;;;;5.00;4.50;;;;;;;;;;10322144;28;20478;-63
2024/03/20 04:53:10;;;;;;;4.72;4.18;;;;;;;;;;10319070;28;20022;-63
2024/03/20 04:58:11;;;;;;;6.28;4.65;;;;;;;;;;10326862;28;20080;-63
2024/03/20 05:03:12;;;;;;;6.18;4.43;;;;;;;;;;10326237;28;20034;-63
2024/03/20 05:08:12;;;;;;;4.53;4.13;;;;;;;;;;10327683;28;20097;-63
2024/03/20 05:13:13;;;;;;;4.43;4.03;;;;;;;;;;10325928;28;20031;-63
2024/03/20 05:18:13;;;;;;;6.00;4.30;;;;;;;;;;10317166;28;20037;-63
2024/03/20 05:23:14;;;;;;;5.43;3.97;;;;;;;;;;10321818;28;20093;-63
2024/03/20 05:28:14;;;;;;;4.97;4.47;;;;;;;;;;10328329;28;20034;-63
2024/03/20 05:33:15;;;;;;;4.38;3.97;;;;;;;;;;10327068;28;20047;-63
2024/03/20 05:38:16;;;;;;;4.40;3.95;;;;;;;;;;10327297;28;20034;-63
2024/03/20 05:43:16;;;;;;;4.25;3.78;;;;;;;;;;10325324;28;20038;-62
2024/03/20 05:48:17;;;;;;;4.22;3.83;;;;;;;;;;10326960;28;20030;-64
2024/03/20 05:53:18;;;;;;;5.18;4.30;;;;;;;;;;10330673;28;20289;-63
2024/03/20 05:58:19;;;;;;;5.00;4.07;;;;;;;;;;10317997;28;20038;-64
2024/03/20 06:03:19;;;;;;;5.28;4.35;;;;;;;;;;10323639;28;20041;-63
2024/03/20 06:08:21;;;;;;;4.88;4.38;;;;;;;;;;10306705;28;20034;-63
2024/03/20 06:13:22;;;;;;;6.07;4.50;;;;;;;;;;10313854;28;20027;-63
2024/03/20 06:18:22;;;;;;;5.43;4.28;;;;;;;;;;10324435;28;20387;-63
2024/03/20 06:23:23;;;;;;;8.18;4.35;;;;;;;;;;10321888;28;20030;-63
2024/03/20 06:28:24;;;;;;;5.05;4.07;;;;;;;;;;10324235;28;20026;-62
2024/03/20 06:33:24;;;;;;;4.78;4.05;;;;;;;;;;10328662;28;20050;-63
2024/03/20 06:38:25;;;;;;;5.32;4.72;;;;;;;;;;10319586;28;20035;-62
2024/03/20 06:43:33;;;;;;;9.05;5.10;;;;;;;;;;10318887;28;20038;-62
2024/03/20 06:48:34;;;;;;;5.00;4.50;;;;;;;;;;10323211;28;20462;-63
2024/03/20 06:53:35;;;;;;;8.43;5.18;;;;;;;;;;10321701;28;20097;-63
2024/03/20 06:58:36;;;;;;;11.48;6.32;;;;;;;;;;10320773;28;20062;-63
2024/03/20 07:03:37;;;;;;;8.68;5.47;;;;;;;;;;10318754;28;20116;-63
2024/03/20 07:08:38;;;;;;;7.75;5.88;;;;;;;;;;10324688;28;20022;-63
2024/03/20 07:13:39;;;;;;;12.95;6.65;;;;;;;;;;10338458;28;20041;-63
2024/03/20 07:18:39;;;;;;;12.50;7.45;;;;;;;;;;10325418;28;20058;-63
2024/03/20 07:23:40;;;;;;;12.73;8.65;;;;;;;;;;10324603;28;20121;-64
2024/03/20 07:28:41;;;;;;;16.55;8.32;;;;;;;;;;10325572;28;20030;-63
2024/03/20 07:33:41;;;;;;;24.13;9.10;;;;;;;;;;10324029;28;20502;-63
2024/03/20 07:38:42;;;;;;;14.55;9.23;;;;;;;;;;10325532;28;20022;-63
2024/03/20 07:43:42;;;;;;;17.52;9.32;;;;;;;;;;10323863;28;20033;-63
2024/03/20 07:48:44;;;;;;;14.18;8.65;;;;;;;;;;10324820;28;20038;-63
2024/03/20 07:53:46;;;;;;;13.52;9.18;;;;;;;;;;10323734;28;20026;-63
2024/03/20 07:58:47;;;;;;;11.68;8.98;;;;;;;;;;10324088;28;20371;-63
2024/03/20 08:03:49;;;;;;;11.13;8.10;;;;;;;;;;10324096;28;20034;-63
2024/03/20 08:08:49;;;;;;;13.00;8.70;;;;;;;;;;10323939;28;20030;-63
2024/03/20 08:13:50;;;;;;;15.18;8.80;;;;;;;;;;10319723;28;20030;-63
2024/03/20 08:18:51;;;;;;;19.05;8.98;;;;;;;;;;10322520;28;20072;-63
2024/03/20 08:23:51;;;;;;;12.27;8.27;;;;;;;;;;10323579;28;20048;-64
2024/03/20 08:28:52;;;;;;;12.82;8.70;;;;;;;;;;10332067;28;20022;-63
2024/03/20 08:33:52;;;;;;;15.32;9.20;;;;;;;;;;10328952;28;20042;-64
2024/03/20 08:38:53;;;;;;;14.18;9.00;;;;;;;;;;10326613;28;20022;-63
2024/03/20 08:43:53;;;;;;;13.93;8.75;;;;;;;;;;10330915;28;20305;-63
2024/03/20 08:48:54;;;;;;;14.73;8.43;;;;;;;;;;10331253;28;20437;-63
2024/03/20 08:53:55;;;;;;;11.00;7.82;;;;;;;;;;10331006;28;20442;-63
2024/03/20 08:58:56;;;;;;;11.45;7.90;;;;;;;;;;10331258;28;20478;-64
2024/03/20 09:03:57;;;;;;;10.82;7.95;;;;;;;;;;10329943;28;20061;-63
2024/03/20 09:08:58;;;;;;;11.40;8.38;;;;;;;;;;10329908;28;20046;-63
2024/03/20 09:14:01;;;;;;;9.13;7.47;;;;;;;;;;10329641;28;20422;-63
2024/03/20 09:19:02;;;;;;;13.25;8.18;;;;;;;;;;10327947;28;20026;-64
2024/03/20 09:24:03;;;;;;;11.23;7.75;;;;;;;;;;10327821;28;20081;-63
2024/03/20 09:29:03;;;;;;;11.02;7.10;;;;;;;;;;10329716;28;20034;-63
2024/03/20 09:34:05;;;;;;;9.90;7.10;;;;;;;;;;10328406;28;20162;-63
2024/03/20 09:39:10;;;;;;;10.68;7.35;;;;;;;;;;10326546;28;20030;-64
2024/03/20 09:44:13;;;;;;;9.57;7.32;;;;;;;;;;10328007;28;20109;-64
2024/03/20 09:49:14;;;;;;;9.20;7.20;;;;;;;;;;10325944;28;20052;-63
2024/03/20 09:54:16;;;;;;;10.45;7.13;;;;;;;;;;10325496;28;20034;-63
2024/03/20 09:59:16;;;;;;;10.30;6.82;;;;;;;;;;10327476;28;20835;-63
2024/03/20 10:04:25;;;;;;;9.10;7.18;;;;;;;;;;10327351;28;20026;-63
2024/03/20 10:09:29;;;;;;;12.43;7.38;;;;;;;;;;10325981;28;20035;-63
2024/03/20 10:14:29;;;;;;;11.25;6.70;;;;;;;;;;10326583;28;20096;-62
2024/03/20 10:19:30;;;;;;;9.52;6.72;;;;;;;;;;10327290;28;20023;-63
2024/03/20 10:24:35;;;;;;;8.30;6.57;;;;;;;;;;10327826;28;20391;-64
2024/03/20 10:29:38;;;;;;;11.77;6.85;;;;;;;;;;10325983;28;20060;-64
2024/03/20 10:34:41;;;;;;;8.95;6.78;;;;;;;;;;10324506;28;20434;-64
2024/03/20 10:39:42;;;;;;;7.75;6.43;;;;;;;;;;10325974;28;20058;-63
2024/03/20 10:44:43;;;;;;;10.07;7.28;;;;;;;;;;10323225;28;20081;-64
2024/03/20 10:49:44;;;;;;;8.52;6.55;;;;;;;;;;10325348;28;20458;-63
2024/03/20 10:54:45;;;;;;;10.95;7.13;;;;;;;;;;10325782;28;20031;-64
2024/03/20 10:59:47;;;;;;;7.40;6.35;;;;;;;;;;10311708;28;20478;-63
2024/03/20 11:04:47;;;;;;;10.57;7.22;;;;;;;;;;10323221;28;20029;-63
2024/03/20 11:09:48;;;;;;;9.38;6.13;;;;;;;;;;10319792;28;20034;-64
2024/03/20 11:14:50;;;;;;;9.13;6.88;;;;;;;;;;10323835;28;20030;-64
2024/03/20 11:19:51;;;;;;;9.07;6.38;;;;;;;;;;10323971;28;20382;-63
2024/03/20 11:24:53;;;;;;;7.50;5.82;;;;;;;;;;10325114;28;20471;-63
2024/03/20 11:29:54;;;;;;;7.07;5.90;;;;;;;;;;10323959;28;20304;-64
2024/03/20 11:34:55;;;;;;;8.68;6.28;;;;;;;;;;10324194;28;20540;-63
2024/03/20 11:39:55;;;;;;;9.30;6.35;;;;;;;;;;10321765;28;20367;-64
2024/03/20 11:44:56;;;;;;;7.78;6.07;;;;;;;;;;10324252;28;20517;-64
2024/03/20 11:49:57;;;;;;;8.02;6.00;;;;;;;;;;10324615;28;20508;-64
2024/03/20 11:54:58;;;;;;;9.18;6.30;;;;;;;;;;10313515;28;20119;-63
2024/03/20 12:00:00;;;;;;;14.35;5.70;;;;;;;;;;10321609;28;20061;-64
2024/03/20 12:05:01;;;;;;;10.18;5.95;;;;;;;;;;10324372;28;20023;-64
2024/03/20 12:10:02;;;;;;;9.73;6.40;;;;;;;;;;10321482;28;20034;-64
2024/03/20 12:15:06;;;;;;;7.75;6.25;;;;;;;;;;10322406;28;20030;-64
2024/03/20 12:20:07;;;;;;;7.80;5.85;;;;;;;;;;10324006;28;20663;-64
2024/03/20 12:25:11;;;;;;;6.90;5.72;;;;;;;;;;10321630;28;20524;-64
2024/03/20 12:30:13;;;;;;;6.95;5.75;;;;;;;;;;10323661;28;20085;-64
2024/03/20 12:35:14;;;;;;;9.60;5.90;;;;;;;;;;10321907;28;21140;-63
2024/03/20 12:40:15;;;;;;;6.95;5.72;;;;;;;;;;10322185;28;20033;-64
2024/03/20 12:45:17;;;;;;;7.50;6.03;;;;;;;;;;10322880;28;20038;-62
2024/03/20 12:50:17;;;;;;;8.18;6.43;;;;;;;;;;10321765;28;20026;-62
2024/03/20 12:55:18;;;;;;;8.13;6.13;;;;;;;;;;10320561;28;20026;-64
2024/03/20 13:00:23;;;;;;;8.45;6.00;;;;;;;;;;10322310;28;20038;-63
2024/03/20 13:05:23;;;;;;;8.85;6.00;;;;;;;;;;10322299;28;20491;-64
2024/03/20 13:10:25;;;;;;;8.65;5.88;;;;;;;;;;10322799;28;20034;-63
2024/03/20 13:15:26;;;;;;;8.10;5.78;;;;;;;;;;10329860;28;20096;-63
2024/03/20 13:20:27;;;;;;;8.52;6.05;;;;;;;;;;10330094;28;20090;-63
2024/03/20 13:25:32;;;;;;;7.47;5.72;;;;;;;;;;10324923;28;20521;-63
2024/03/20 13:30:33;;;;;;;6.35;5.07;;;;;;;;;;10328851;28;20181;-63
2024/03/20 13:35:34;;;;;;;6.75;5.95;;;;;;;;;;10328972;28;20109;-63
2024/03/20 13:40:40;;;;;;;7.30;5.85;;;;;;;;;;10330429;28;20035;-64
2024/03/20 13:45:56;;;;;;;6.85;5.55;;;;;;;;;;10329302;28;20036;-64
2024/03/20 13:50:57;;;;;;;6.82;5.93;;;;;;;;;;10318707;28;20176;-64
2024/03/20 13:55:57;;;;;;;6.55;5.55;;;;;;;;;;10316753;28;20470;-63
2024/03/20 14:00:58;;;;;;;5.88;5.15;;;;;;;;;;10328091;28;20023;-64
2024/03/20 14:05:59;;;;;;;8.05;5.85;;;;;;;;;;10327650;28;20555;-63
2024/03/20 14:10:59;;;;;;;5.70;5.05;;;;;;;;;;10328287;28;20501;-63
2024/03/20 14:16:00;;;;;;;6.78;5.35;;;;;;;;;;10328071;28;20038;-63
2024/03/20 14:21:00;;;;;;;6.72;5.32;;;;;;;;;;10326259;28;20026;-63
2024/03/20 14:26:01;;;;;;;6.70;5.45;;;;;;;;;;10326604;28;20030;-63
2024/03/20 14:31:02;;;;;;;8.18;5.55;;;;;;;;;;10327507;28;20158;-62
2024/03/20 14:36:03;;;;;;;5.80;5.22;;;;;;;;;;10311443;23;20070;-60
2024/03/20 14:41:05;;;;;;;7.72;5.75;;;;;;;;;;10253317;28;20031;-60
2024/03/20 14:46:10;;;;;;;6.15;4.63;;;;;;;;;;10199139;29;20138;-60
2024/03/20 14:51:26;;;;;;;6.63;5.07;;;;;;;;;;10190901;29;20558;-59
2024/03/20 14:56:27;;;;;;;6.53;5.20;;;;;;;;;;10197669;29;20043;-60
2024/03/20 15:01:28;;;;;;;7.18;4.82;;;;;;;;;;10206718;29;20039;-60
2024/03/20 15:06:30;;;;;;;5.10;4.60;;;;;;;;;;10192009;29;20188;-60
2024/03/20 15:11:31;;;;;;;7.22;4.80;;;;;;;;;;10192681;29;20035;-60
2024/03/20 15:16:31;;;;;;;8.18;4.38;;;;;;;;;;10169563;29;20043;-60
2024/03/20 15:21:32;;;;;;;5.50;4.40;;;;;;;;;;10181940;29;20039;-59
2024/03/20 15:26:33;;;;;;;4.60;4.18;;;;;;;;;;10168879;29;20039;-60
2024/03/20 15:31:36;;;;;;;6.38;4.85;;;;;;;;;;10169265;29;20031;-59
2024/03/20 15:36:37;;;;;;;5.53;4.07;;;;;;;;;;10168967;29;20111;-60
2024/03/20 15:41:38;;;;;;;5.18;4.13;;;;;;;;;;10168433;29;20111;-60
2024/03/20 15:46:38;;;;;;;4.47;4.07;;;;;;;;;;10168592;29;20401;-59
2024/03/20 15:51:39;;;;;;;4.70;3.72;;;;;;;;;;10180883;29;20039;-60
2024/03/20 15:56:39;;;;;;;4.68;4.25;;;;;;;;;;10168499;29;20055;-59
2024/03/20 16:01:40;;;;;;;5.47;4.15;;;;;;;;;;10167734;29;20437;-60
2024/03/20 16:06:41;;;;;;;5.65;4.25;;;;;;;;;;10179783;29;20028;-60
2024/03/20 16:11:44;;;;;;;4.53;4.05;;;;;;;;;;10180725;29;20102;-60
2024/03/20 16:16:44;;;;;;;4.13;3.72;;;;;;;;;;10167713;29;20031;-60
2024/03/20 16:21:46;;;;;;;7.03;4.35;;;;;;;;;;10167144;29;20063;-60
2024/03/20 16:26:46;;;;;;;6.68;4.10;;;;;;;;;;10194979;29;20039;-60
2024/03/20 16:31:47;;;;;;;5.05;4.20;;;;;;;;;;10203686;29;20476;-60
2024/03/20 16:36:47;;;;;;;4.60;4.20;;;;;;;;;;10200897;29;20628;-60
2024/03/20 16:41:48;;;;;;;4.95;3.90;;;;;;;;;;10201652;29;20499;-60
2024/03/20 16:46:48;;;;;;;5.88;4.15;;;;;;;;;;10207385;29;20514;-60
2024/03/20 16:51:51;;;;;;;7.63;4.10;;;;;;;;;;10209980;29;20039;-60
2024/03/20 16:56:51;;;;;;;4.28;3.85;;;;;;;;;;10211620;29;20057;-59
2024/03/20 17:01:52;;;;;;;4.13;3.80;;;;;;;;;;10212296;29;20494;-60
2024/03/20 17:06:53;;;;;;;3.75;3.45;;;;;;;;;;10210615;29;20036;-60
2024/03/20 17:11:54;;;;;;;4.03;3.58;;;;;;;;;;10194670;29;20024;-60
2024/03/20 17:16:54;;;;;;;4.22;3.63;;;;;;;;;;10173843;29;20104;-60
2024/03/20 17:21:56;;;;;;;3.85;3.42;;;;;;;;;;10175527;29;20032;-60
2024/03/20 17:26:57;;;;;;;4.70;3.95;;;;;;;;;;10184374;29;20547;-60
2024/03/20 17:31:57;;;;;;;4.82;3.50;;;;;;;;;;10173109;29;20044;-60
2024/03/20 17:36:59;;;;;;;4.25;3.45;;;;;;;;;;10172895;29;20051;-59
2024/03/20 17:41:59;;;;;;;4.35;3.35;;;;;;;;;;10172157;29;20478;-59
2024/03/20 17:47:00;;;;;;;3.75;3.38;;;;;;;;;;10172123;29;20047;-59
2024/03/20 17:52:00;;;;;;;4.65;3.53;;;;;;;;;;10191485;29;20044;-59
2024/03/20 17:57:01;;;;;;;12.98;3.72;;;;;;;;;;10191129;29;20050;-59
2024/03/20 18:02:02;;;;;;;5.90;3.65;;;;;;;;;;10173284;29;20028;-60
2024/03/20 18:07:03;;;;;;;4.38;3.80;;;;;;;;;;10184078;29;20115;-60
2024/03/20 18:12:05;;;;;;;5.13;3.65;;;;;;;;;;10200358;29;20043;-60
2024/03/20 18:17:07;;;;;;;4.63;3.28;;;;;;;;;;10202894;29;20050;-60
2024/03/20 18:22:10;;;;;;;4.55;3.47;;;;;;;;;;10207518;29;20032;-60
2024/03/20 18:27:11;;;;;;;10.30;4.05;;;;;;;;;;10202671;29;20036;-61
2024/03/20 18:32:12;;;;;;;4.00;3.47;;;;;;;;;;10193133;29;20492;-61
2024/03/20 18:37:12;;;;;;;9.02;3.90;;;;;;;;;;10190523;29;20079;-60
2024/03/20 18:42:17;;;;;;;4.03;3.47;;;;;;;;;;10203612;29;20034;-60
2024/03/20 18:47:17;;;;;;;4.10;3.70;;;;;;;;;;10180945;29;20274;-61
2024/03/20 18:52:18;;;;;;;4.25;3.53;;;;;;;;;;10198187;29;20230;-61
2024/03/20 18:57:19;;;;;;;4.13;3.65;;;;;;;;;;10183432;29;20048;-60
2024/03/20 19:02:22;;;;;;;6.05;3.38;;;;;;;;;;10193947;29;20058;-60
2024/03/20 19:07:23;;;;;;;6.97;3.47;;;;;;;;;;10183597;29;20072;-60
2024/03/20 19:12:24;;;;;;;3.70;3.40;;;;;;;;;;10204922;29;20468;-60
2024/03/20 19:17:25;;;;;;;3.65;3.33;;;;;;;;;;10200680;29;20035;-60
2024/03/20 19:22:26;;;;;;;4.45;3.50;;;;;;;;;;10199770;29;20492;-60
2024/03/20 19:27:26;;;;;;;6.35;4.30;;;;;;;;;;10199781;29;20035;-61
2024/03/20 19:32:27;;;;;;;6.22;3.83;;;;;;;;;;10198287;29;20040;-60
2024/03/20 19:37:28;;;;;;;5.10;3.95;;;;;;;;;;10191845;29;20103;-61
2024/03/20 19:42:28;;;;;;;10.25;4.43;;;;;;;;;;10190510;29;20050;-61
2024/03/20 19:47:29;;;;;;;13.10;5.35;;;;;;;;;;10200814;29;20133;-61
2024/03/20 19:52:29;;;;;;;15.30;4.65;;;;;;;;;;10201354;29;20055;-61
2024/03/20 19:57:30;;;;;;;6.97;4.53;;;;;;;;;;10190729;29;20024;-60
2024/03/20 20:02:31;;;;;;;9.02;4.35;;;;;;;;;;10199639;29;20511;-60
2024/03/20 20:07:33;;;;;;;11.88;5.72;;;;;;;;;;10200105;29;20440;-60
2024/03/20 20:12:33;;;;;;;12.25;5.75;;;;;;;;;;10189830;29;20457;-59
2024/03/20 20:17:35;;;;;;;5.53;4.25;;;;;;;;;;10193836;29;20039;-60
2024/03/20 20:22:36;;;;;;;7.60;4.80;;;;;;;;;;10194877;29;20460;-60
2024/03/20 20:27:37;;;;;;;7.40;4.50;;;;;;;;;;10192078;29;20072;-60
2024/03/20 20:32:42;;;;;;;8.35;4.57;;;;;;;;;;10188258;29;20035;-60
2024/03/20 20:37:42;;;;;;;8.63;4.72;;;;;;;;;;10197912;29;20083;-60
2024/03/20 20:42:43;;;;;;;7.18;4.70;;;;;;;;;;10196866;29;20051;-60
2024/03/20 20:47:45;;;;;;;9.98;4.63;;;;;;;;;;10198732;29;20487;-60
2024/03/20 20:52:46;;;;;;;8.40;4.80;;;;;;;;;;10198685;29;20039;-61
2024/03/20 20:57:48;;;;;;;9.13;4.32;;;;;;;;;;10200548;29;20047;-60
2024/03/20 21:24:12;;;;;;;8.40;4.35;;;;;;;;;;10193933;29;20028;-60
2024/03/20 21:29:14;;;;;;;7.78;4.30;;;;;;;;;;10201786;29;20456;-59
2024/03/20 21:34:14;;;;;;;10.40;4.88;;;;;;;;;;10190336;29;20051;-60
2024/03/20 21:39:15;;;;;;;10.38;4.75;;;;;;;;;;10208574;29;20031;-60
2024/03/20 21:44:18;;;;;;;16.23;6.32;;;;;;;;;;10203961;29;20364;-60
2024/03/20 21:49:19;;;;;;;7.00;4.80;;;;;;;;;;10208324;29;20051;-59
2024/03/20 21:54:20;;;;;;;9.57;4.75;;;;;;;;;;10215421;29;20035;-59
2024/03/20 21:59:21;;;;;;;9.18;5.07;;;;;;;;;;10201114;29;20103;-59
2024/03/20 22:04:21;;;;;;;6.95;4.93;;;;;;;;;;10197830;29;20099;-59
2024/03/20 22:09:22;;;;;;;6.80;4.85;;;;;;;;;;10184814;29;20087;-60
2024/03/20 22:14:23;;;;;;;8.07;4.97;;;;;;;;;;10196695;29;20094;-60
2024/03/20 22:19:24;;;;;;;8.30;4.80;;;;;;;;;;10186848;29;20354;-60
2024/03/20 22:24:24;;;;;;;7.80;5.43;;;;;;;;;;10187831;29;20036;-61
2024/03/20 22:29:25;;;;;;;13.75;4.75;;;;;;;;;;10208085;29;20075;-60
2024/03/20 22:34:25;;;;;;;7.43;4.57;;;;;;;;;;10194301;29;20040;-60
2024/03/20 22:39:27;;;;;;;10.60;4.97;;;;;;;;;;10198633;29;20040;-60
2024/03/20 22:44:29;;;;;;;9.15;4.82;;;;;;;;;;10190488;29;20063;-62
2024/03/20 22:49:29;;;;;;;11.32;4.60;;;;;;;;;;10182767;29;20039;-61
2024/03/20 22:54:30;;;;;;;13.73;4.53;;;;;;;;;;10184591;29;20035;-62
2024/03/20 22:59:31;;;;;;;8.02;4.30;;;;;;;;;;10201645;29;20087;-62
2024/03/20 23:04:32;;;;;;;9.20;4.57;;;;;;;;;;10205302;29;20040;-62
2024/03/20 23:09:33;;;;;;;11.23;4.60;;;;;;;;;;10199245;29;20028;-62
2024/03/20 23:14:35;;;;;;;7.90;4.40;;;;;;;;;;10197794;29;20023;-62
2024/03/20 23:19:35;;;;;;;7.03;4.50;;;;;;;;;;10199138;29;20024;-63
2024/03/20 23:24:36;;;;;;;5.97;4.40;;;;;;;;;;10190462;29;20031;-62
2024/03/20 23:29:37;;;;;;;8.23;4.18;;;;;;;;;;10199935;29;20169;-62
2024/03/20 23:34:37;;;;;;;6.15;4.07;;;;;;;;;;10198955;29;20043;-62
2024/03/20 23:39:38;;;;;;;7.95;4.25;;;;;;;;;;10193399;29;20032;-62
2024/03/20 23:44:39;;;;;;;8.55;4.82;;;;;;;;;;10198920;29;20068;-61
2024/03/20 23:49:40;;;;;;;7.35;4.55;;;;;;;;;;10195483;29;20046;-61
2024/03/20 23:54:41;;;;;;;8.75;4.13;;;;;;;;;;10198823;29;20106;-59
2024/03/20 23:59:42;;;;;;;5.13;4.13;;;;;;;;;;10191500;29;20032;-59
